Time;durP1;ratioP1;P1;durP2;ratioP2;P2;SDS_P1;SDS_P2;PMS_P1;PMS_P2;Temp;Humidity;BMP_temperature;BMP_pressure;BME280_temperature;BME280_humidity;BME280_pressure;Samples;Min_cycle;Max_cycle;Signal;HPM_P1;HPM_P2
2024/05/02 00:01:53;;;;;;;6.72;3.60;;;19.30;95.40;;;;;;7514159;26;20278;-80
2024/05/02 00:05:16;;;;;;;5.85;3.75;;;19.40;95.10;;;;;;7511179;26;20232;-82
2024/05/02 00:08:42;;;;;;;4.35;3.70;;;19.10;95.40;;;;;;7509312;26;20603;-81
2024/05/02 00:12:05;;;;;;;3.55;3.20;;;19.20;95.60;;;;;;7505057;26;20660;-79
2024/05/02 00:15:28;;;;;;;6.95;3.88;;;19.40;94.70;;;;;;7522180;26;20232;-80
2024/05/02 00:18:51;;;;;;;3.90;3.55;;;19.30;94.90;;;;;;7516547;26;20236;-80
2024/05/02 00:22:14;;;;;;;8.13;4.40;;;19.30;94.90;;;;;;7514812;26;20292;-80
2024/05/02 00:25:39;;;;;;;6.13;4.38;;;19.50;94.60;;;;;;7497450;26;20224;-79
2024/05/02 00:29:02;;;;;;;5.82;3.65;;;19.40;94.70;;;;;;7496373;26;20228;-80
2024/05/02 00:32:26;;;;;;;5.22;3.25;;;19.60;94.60;;;;;;7515964;26;20279;-78
2024/05/02 00:35:49;;;;;;;5.50;4.18;;;19.70;94.60;;;;;;7502808;26;20275;-78
2024/05/02 00:39:12;;;;;;;4.43;3.50;;;19.60;94.70;;;;;;7502442;26;20233;-80
2024/05/02 00:42:37;;;;;;;6.00;3.58;;;19.40;94.70;;;;;;7520782;26;20228;-79
2024/05/02 00:46:00;;;;;;;5.57;4.10;;;19.40;94.90;;;;;;7515926;26;20984;-79
2024/05/02 00:49:24;;;;;;;4.80;3.63;;;19.40;94.90;;;;;;7502752;26;20229;-81
2024/05/02 00:52:47;;;;;;;8.93;5.03;;;19.50;95.10;;;;;;7523654;26;20608;-77
2024/05/02 00:56:13;;;;;;;3.70;3.40;;;19.40;95.40;;;;;;7502211;26;20607;-78
2024/05/02 00:59:38;;;;;;;8.80;4.15;;;19.40;95.40;;;;;;7511748;26;20274;-79
2024/05/02 01:03:01;;;;;;;7.00;3.80;;;19.40;95.40;;;;;;7515923;26;20718;-80
2024/05/02 01:06:24;;;;;;;5.15;3.53;;;19.30;95.50;;;;;;7500916;26;20727;-79
2024/05/02 01:09:47;;;;;;;6.07;3.83;;;19.10;95.60;;;;;;7519346;26;20278;-79
2024/05/02 01:13:11;;;;;;;6.72;4.13;;;19.00;95.80;;;;;;7502151;26;20334;-79
2024/05/02 01:16:37;;;;;;;5.55;3.20;;;18.90;96.00;;;;;;7509614;26;20236;-80
2024/05/02 01:20:00;;;;;;;5.28;4.15;;;18.80;96.20;;;;;;7490888;26;20228;-81
2024/05/02 01:23:25;;;;;;;4.60;3.60;;;18.80;96.30;;;;;;7508279;26;20228;-80
2024/05/02 01:26:51;;;;;;;5.13;4.25;;;18.70;96.40;;;;;;7514892;26;20275;-79
2024/05/02 01:30:14;;;;;;;4.53;4.13;;;18.70;96.90;;;;;;7503109;26;20233;-79
2024/05/02 01:33:37;;;;;;;4.13;3.70;;;18.60;96.70;;;;;;7491189;26;20272;-79
2024/05/02 01:36:59;;;;;;;4.32;4.00;;;18.60;96.90;;;;;;7521365;26;20278;-79
2024/05/02 01:40:26;;;;;;;7.53;4.35;;;18.50;97.20;;;;;;7506991;26;20232;-79
2024/05/02 01:43:49;;;;;;;4.30;3.42;;;18.60;97.10;;;;;;7505306;26;20248;-80
2024/05/02 01:47:12;;;;;;;5.30;3.88;;;18.60;97.30;;;;;;7475949;26;20267;-80
2024/05/02 01:50:35;;;;;;;4.47;3.83;;;18.70;97.30;;;;;;7511818;26;21236;-79
2024/05/02 01:53:59;;;;;;;5.28;4.00;;;18.70;97.20;;;;;;7511408;26;20272;-79
2024/05/02 01:57:25;;;;;;;6.18;4.05;;;18.60;97.30;;;;;;7507902;26;20320;-80
2024/05/02 02:00:48;;;;;;;3.85;3.55;;;18.50;97.70;;;;;;7503483;26;20244;-78
2024/05/02 02:04:12;;;;;;;5.07;3.58;;;18.60;97.60;;;;;;7520048;26;20279;-79
2024/05/02 02:07:35;;;;;;;8.23;4.63;;;18.50;97.90;;;;;;7506308;26;20314;-81
2024/05/02 02:10:58;;;;;;;5.95;4.43;;;18.50;98.20;;;;;;7526483;26;20275;-81
2024/05/02 02:14:24;;;;;;;6.70;4.22;;;18.50;98.30;;;;;;7520023;26;20319;-78
2024/05/02 02:17:47;;;;;;;6.63;4.40;;;18.60;98.50;;;;;;7497113;26;20228;-78
2024/05/02 02:21:11;;;;;;;4.90;3.50;;;18.60;98.40;;;;;;7519029;26;20327;-79
2024/05/02 02:24:34;;;;;;;6.40;4.05;;;18.60;98.40;;;;;;7517650;26;20224;-78
2024/05/02 02:27:57;;;;;;;4.80;3.80;;;18.50;98.70;;;;;;7517790;26;20237;-79
2024/05/02 02:31:22;;;;;;;4.93;4.47;;;18.40;99.00;;;;;;7502221;26;20276;-80
2024/05/02 02:34:46;;;;;;;8.80;4.32;;;18.50;99.20;;;;;;7514078;26;20329;-80
2024/05/02 02:38:09;;;;;;;4.65;3.50;;;18.60;98.90;;;;;;7517781;26;20229;-79
2024/05/02 02:41:32;;;;;;;5.85;3.53;;;18.60;99.10;;;;;;7503335;26;20276;-78
2024/05/02 02:44:55;;;;;;;4.22;3.83;;;18.10;99.90;;;;;;7528149;26;20231;-79
2024/05/02 02:48:20;;;;;;;4.95;3.70;;;18.30;99.80;;;;;;7491176;26;20614;-79
2024/05/02 02:51:43;;;;;;;5.55;3.40;;;17.90;99.90;;;;;;7523060;26;20233;-81
2024/05/02 02:55:07;;;;;;;8.15;4.00;;;18.00;99.90;;;;;;7495009;26;20236;-79
2024/05/02 02:58:30;;;;;;;6.50;4.32;;;18.00;99.90;;;;;;7489109;26;20337;-80
2024/05/02 03:01:53;;;;;;;6.60;3.95;;;18.00;99.90;;;;;;7498302;26;20242;-79
2024/05/02 03:05:19;;;;;;;4.13;3.72;;;18.00;99.90;;;;;;7524292;26;20232;-81
2024/05/02 03:08:43;;;;;;;4.68;4.05;;;18.10;99.90;;;;;;7515242;26;20229;-78
2024/05/02 03:12:07;;;;;;;8.82;4.78;;;18.30;99.90;;;;;;7523080;26;20267;-78
2024/05/02 03:15:30;;;;;;;10.65;4.80;;;18.40;99.90;;;;;;7516580;26;20233;-77
2024/05/02 03:18:53;;;;;;;7.80;4.82;;;18.30;99.90;;;;;;7511661;26;20900;-77
2024/05/02 03:22:19;;;;;;;5.80;4.13;;;18.40;99.90;;;;;;7496736;26;20579;-79
2024/05/02 03:25:42;;;;;;;4.32;3.92;;;18.10;99.90;;;;;;7503465;26;20233;-80
2024/05/02 03:29:05;;;;;;;5.25;4.38;;;18.20;99.90;;;;;;7513119;26;20233;-81
2024/05/02 03:32:29;;;;;;;6.45;4.93;;;18.20;99.90;;;;;;7507150;26;20282;-79
2024/05/02 03:35:52;;;;;;;6.60;4.70;;;18.20;99.90;;;;;;7506579;26;20240;-80
2024/05/02 03:39:18;;;;;;;6.65;4.85;;;18.10;99.90;;;;;;7492701;26;20279;-79
2024/05/02 03:42:41;;;;;;;6.90;4.85;;;18.10;99.90;;;;;;7495771;26;20365;-80
2024/05/02 03:46:07;;;;;;;5.40;4.18;;;18.10;99.90;;;;;;7520657;26;20736;-77
2024/05/02 03:49:30;;;;;;;9.20;4.97;;;18.00;99.90;;;;;;7493598;26;20379;-80
2024/05/02 03:52:53;;;;;;;6.63;4.50;;;18.20;99.90;;;;;;7506084;26;20251;-78
2024/05/02 03:56:19;;;;;;;7.43;5.25;;;18.30;99.90;;;;;;7505415;26;20228;-79
2024/05/02 03:59:42;;;;;;;8.70;4.82;;;18.20;99.90;;;;;;7513847;26;20241;-81
2024/05/02 04:03:05;;;;;;;5.53;4.28;;;18.20;99.90;;;;;;7516257;26;20233;-78
2024/05/02 04:06:28;;;;;;;5.70;4.70;;;18.20;99.90;;;;;;7494768;26;20280;-77
2024/05/02 04:09:51;;;;;;;5.43;4.97;;;18.10;99.90;;;;;;7516768;26;20229;-78
2024/05/02 04:13:17;;;;;;;8.10;4.90;;;18.00;99.90;;;;;;7510567;26;20238;-79
2024/05/02 04:16:40;;;;;;;6.90;4.53;;;18.00;99.90;;;;;;7499502;26;20328;-79
2024/05/02 04:20:03;;;;;;;8.65;4.90;;;18.00;99.90;;;;;;7499203;26;20232;-78
2024/05/02 04:23:26;;;;;;;5.90;4.13;;;18.00;99.90;;;;;;7525069;26;20268;-79
2024/05/02 04:26:49;;;;;;;5.45;4.32;;;17.90;99.90;;;;;;7520459;26;20228;-79
2024/05/02 04:30:15;;;;;;;8.88;5.35;;;17.80;99.90;;;;;;7496699;26;20775;-80
2024/05/02 04:33:38;;;;;;;7.10;4.88;;;17.80;99.90;;;;;;7498248;26;20233;-78
2024/05/02 04:37:01;;;;;;;5.15;4.70;;;17.80;99.90;;;;;;7515018;26;20275;-78
2024/05/02 04:40:24;;;;;;;5.20;4.68;;;17.70;99.90;;;;;;7514000;26;20348;-79
2024/05/02 04:43:48;;;;;;;7.80;5.57;;;17.60;99.90;;;;;;7499040;26;20359;-80
2024/05/02 04:47:14;;;;;;;7.03;4.28;;;17.60;99.90;;;;;;7516633;26;20228;-78
2024/05/02 04:50:37;;;;;;;5.20;4.80;;;17.80;99.90;;;;;;7523613;26;20233;-78
2024/05/02 04:54:00;;;;;;;4.55;4.05;;;18.00;99.90;;;;;;7497794;26;20233;-80
2024/05/02 04:57:24;;;;;;;5.55;4.88;;;18.00;99.90;;;;;;7525231;26;20232;-78
2024/05/02 05:00:47;;;;;;;6.60;4.50;;;17.80;99.90;;;;;;7503238;26;20264;-78
2024/05/02 05:04:13;;;;;;;7.38;5.53;;;17.80;99.90;;;;;;7504616;26;20723;-78
2024/05/02 05:07:36;;;;;;;5.18;4.72;;;17.90;99.90;;;;;;7507496;26;20233;-79
2024/05/02 05:11:00;;;;;;;7.13;5.35;;;17.70;99.90;;;;;;7518306;26;20707;-80
2024/05/02 05:14:24;;;;;;;5.32;4.88;;;17.50;99.90;;;;;;7491401;26;20734;-77
2024/05/02 05:17:48;;;;;;;6.28;5.68;;;17.50;99.90;;;;;;7501130;26;20233;-79
2024/05/02 05:21:14;;;;;;;6.15;5.55;;;17.40;99.90;;;;;;7506741;26;20301;-78
2024/05/02 05:24:37;;;;;;;5.78;5.22;;;17.40;99.90;;;;;;7505112;26;20269;-78
2024/05/02 05:28:00;;;;;;;7.30;6.03;;;17.40;99.90;;;;;;7516346;26;20313;-77
2024/05/02 05:31:23;;;;;;;10.82;8.23;;;17.50;99.90;;;;;;7520272;26;20295;-79
2024/05/02 05:34:46;;;;;;;7.53;6.35;;;17.60;99.90;;;;;;7496993;26;20351;-78
2024/05/02 05:38:12;;;;;;;8.80;6.45;;;17.70;99.90;;;;;;7510001;26;20236;-79
2024/05/02 05:41:36;;;;;;;6.18;5.57;;;17.70;99.90;;;;;;7514569;26;20271;-78
2024/05/02 05:44:59;;;;;;;10.88;6.15;;;17.80;99.90;;;;;;7505756;26;20228;-79
2024/05/02 05:48:22;;;;;;;9.98;6.13;;;18.00;99.90;;;;;;7502673;26;20229;-80
2024/05/02 05:51:45;;;;;;;7.05;6.35;;;18.10;99.90;;;;;;7510507;26;20229;-79
2024/05/02 05:55:11;;;;;;;11.25;7.10;;;18.10;99.90;;;;;;7504009;26;20245;-79
2024/05/02 05:58:34;;;;;;;13.27;6.68;;;18.20;99.90;;;;;;7494063;26;20229;-78
2024/05/02 06:01:57;;;;;;;6.85;6.28;;;18.40;99.90;;;;;;7513118;26;20622;-79
2024/05/02 06:05:21;;;;;;;6.40;5.72;;;18.50;99.90;;;;;;7502752;26;20274;-79
2024/05/02 06:08:44;;;;;;;16.02;6.20;;;18.50;99.90;;;;;;7494554;26;20240;-77
2024/05/02 06:12:10;;;;;;;6.57;5.63;;;18.60;99.90;;;;;;7510184;26;20236;-81
2024/05/02 06:15:33;;;;;;;8.98;5.65;;;18.80;99.90;;;;;;7517403;26;20599;-81
2024/05/02 06:18:56;;;;;;;6.80;5.43;;;19.20;99.90;;;;;;7494468;26;20229;-78
2024/05/02 06:22:19;;;;;;;7.18;6.10;;;18.70;99.90;;;;;;7496805;26;20287;-78
2024/05/02 06:25:42;;;;;;;6.57;5.60;;;18.40;99.90;;;;;;7517786;26;20683;-80
2024/05/02 06:29:08;;;;;;;8.07;5.78;;;18.10;99.90;;;;;;7493536;26;20334;-79
2024/05/02 06:32:31;;;;;;;5.13;4.65;;;18.30;99.90;;;;;;7512911;26;20284;-78
2024/05/02 06:35:54;;;;;;;13.93;7.53;;;18.40;99.90;;;;;;7514523;26;20748;-79
2024/05/02 06:39:17;;;;;;;5.78;4.97;;;18.50;99.90;;;;;;7502462;26;20329;-79
2024/05/02 06:42:40;;;;;;;7.00;5.72;;;18.40;99.90;;;;;;7500034;26;20244;-81
2024/05/02 06:46:07;;;;;;;10.70;5.95;;;18.40;99.90;;;;;;7517150;26;20228;-81
2024/05/02 06:49:30;;;;;;;6.55;4.90;;;18.60;99.90;;;;;;7508221;26;20228;-80
2024/05/02 06:52:53;;;;;;;5.82;5.00;;;18.90;99.90;;;;;;7515523;26;20228;-80
2024/05/02 06:56:16;;;;;;;5.75;5.15;;;19.50;99.90;;;;;;7490251;26;20237;-80
2024/05/02 06:59:39;;;;;;;6.70;5.93;;;19.70;99.90;;;;;;7506838;26;20584;-80
2024/05/02 07:03:05;;;;;;;7.78;5.38;;;19.70;99.90;;;;;;7511791;26;20228;-82
2024/05/02 07:06:28;;;;;;;6.22;5.53;;;19.30;99.90;;;;;;7496580;26;20280;-81
2024/05/02 07:09:52;;;;;;;6.43;5.47;;;19.30;99.90;;;;;;7505249;26;20237;-81
2024/05/02 07:13:15;;;;;;;7.57;5.43;;;19.00;99.90;;;;;;7506349;26;20279;-80
2024/05/02 07:16:39;;;;;;;6.00;5.28;;;19.20;99.90;;;;;;7519764;26;20236;-81
2024/05/02 07:20:05;;;;;;;6.32;5.72;;;18.60;99.90;;;;;;7483332;26;20229;-79
2024/05/02 07:23:28;;;;;;;7.10;6.60;;;18.50;99.90;;;;;;7501920;26;20779;-79
2024/05/02 07:26:51;;;;;;;8.02;6.47;;;18.40;99.90;;;;;;7528398;26;20232;-78
2024/05/02 07:30:15;;;;;;;5.35;4.95;;;18.30;99.90;;;;;;7507306;26;20233;-79
2024/05/02 07:33:38;;;;;;;7.22;6.30;;;18.00;99.90;;;;;;7515682;26;20268;-81
2024/05/02 07:37:04;;;;;;;11.52;6.30;;;18.00;99.90;;;;;;7513647;26;20699;-78
2024/05/02 07:40:28;;;;;;;6.82;6.15;;;18.40;99.90;;;;;;7510284;26;20283;-78
2024/05/02 07:43:51;;;;;;;7.25;6.60;;;19.00;99.90;;;;;;7513247;26;20279;-78
2024/05/02 07:47:14;;;;;;;7.15;6.50;;;19.30;99.90;;;;;;7511314;26;20237;-78
2024/05/02 07:50:38;;;;;;;8.80;7.45;;;19.40;99.90;;;;;;7504704;26;20233;-80
2024/05/02 07:54:03;;;;;;;7.05;6.38;;;20.00;99.90;;;;;;7509772;26;20270;-77
2024/05/02 07:57:29;;;;;;;7.15;6.30;;;20.40;99.90;;;;;;7499210;26;20271;-80
2024/05/02 08:00:52;;;;;;;9.30;7.25;;;20.30;99.90;;;;;;7490416;26;20270;-80
2024/05/02 08:04:15;;;;;;;9.07;7.45;;;20.30;99.90;;;;;;7516205;26;20229;-81
2024/05/02 08:07:38;;;;;;;8.32;7.55;;;20.80;99.90;;;;;;7505574;26;20259;-82
2024/05/02 08:11:05;;;;;;;9.40;7.43;;;20.50;99.90;;;;;;7513950;26;20334;-79
2024/05/02 08:14:28;;;;;;;7.15;6.55;;;20.80;99.90;;;;;;7515349;26;20587;-80
2024/05/02 08:17:51;;;;;;;9.07;7.68;;;20.70;99.90;;;;;;7514537;26;20240;-80
2024/05/02 08:21:14;;;;;;;7.40;6.75;;;21.00;99.90;;;;;;7511384;26;20233;-79
2024/05/02 08:24:37;;;;;;;8.45;7.68;;;21.90;99.90;;;;;;7519113;26;20276;-81
2024/05/02 08:28:04;;;;;;;9.57;7.63;;;21.40;99.90;;;;;;7502833;26;20280;-81
2024/05/02 08:31:27;;;;;;;9.80;7.55;;;21.80;99.90;;;;;;7499280;26;20236;-82
2024/05/02 08:34:50;;;;;;;8.77;8.00;;;22.00;99.90;;;;;;7522839;26;20288;-80
2024/05/02 08:38:17;;;;;;;8.82;7.78;;;22.10;99.90;;;;;;7517647;26;20332;-81
2024/05/02 08:41:40;;;;;;;6.82;6.15;;;22.90;99.90;;;;;;7518156;26;20232;-81
2024/05/02 08:45:09;;;;;;;9.27;7.47;;;23.30;99.90;;;;;;7509767;26;20231;-82
2024/05/02 08:48:32;;;;;;;8.45;6.82;;;23.90;99.90;;;;;;7519565;26;20726;-82
2024/05/02 08:51:57;;;;;;;7.22;6.35;;;24.10;99.90;;;;;;7485516;26;20248;-84
2024/05/02 08:55:20;;;;;;;7.88;7.07;;;23.50;99.90;;;;;;7503508;26;20232;-82
2024/05/02 08:58:48;;;;;;;7.43;6.72;;;24.70;99.90;;;;;;7491988;26;20232;-83
2024/05/02 09:02:15;;;;;;;7.88;7.05;;;25.50;97.60;;;;;;7497740;26;20225;-84
2024/05/02 09:05:40;;;;;;;8.45;7.00;;;25.50;96.10;;;;;;7517643;26;20263;-82
2024/05/02 09:09:03;;;;;;;6.25;5.85;;;25.10;97.10;;;;;;7508572;26;20306;-83
2024/05/02 09:12:26;;;;;;;7.72;6.93;;;25.40;95.90;;;;;;7490032;26;20260;-86
2024/05/02 09:15:49;;;;;;;6.72;6.22;;;25.70;95.70;;;;;;7515140;26;20229;-84
2024/05/02 09:19:15;;;;;;;6.30;5.72;;;26.00;94.80;;;;;;7505288;26;20229;-83
2024/05/02 09:22:38;;;;;;;6.43;5.82;;;27.80;92.60;;;;;;7504608;26;20278;-84
2024/05/02 09:26:01;;;;;;;7.10;6.25;;;28.00;90.00;;;;;;7520896;26;20232;-83
2024/05/02 09:29:27;;;;;;;7.40;5.30;;;28.80;88.00;;;;;;7504826;26;20229;-84
2024/05/02 09:32:50;;;;;;;8.35;5.80;;;26.50;90.30;;;;;;7510132;26;20272;-83
2024/05/02 09:36:16;;;;;;;6.07;5.50;;;27.60;88.70;;;;;;7498782;26;20267;-85
2024/05/02 09:39:45;;;;;;;6.75;5.25;;;28.20;85.30;;;;;;7503941;26;20337;-84
2024/05/02 09:43:09;;;;;;;6.18;5.43;;;27.60;86.30;;;;;;7515284;26;20233;-86
2024/05/02 09:46:33;;;;;;;7.82;5.75;;;25.40;90.30;;;;;;7506838;26;20260;-83
2024/05/02 09:50:02;;;;;;;11.60;6.63;;;24.60;92.20;;;;;;7494469;26;20228;-84
2024/05/02 09:53:28;;;;;;;6.30;5.78;;;24.40;92.90;;;;;;7526071;26;20228;-83
2024/05/02 09:56:54;;;;;;;7.72;6.05;;;23.50;94.80;;;;;;7508409;26;20267;-86
2024/05/02 10:00:18;;;;;;;6.15;5.55;;;24.10;94.40;;;;;;7495489;26;20233;-83
2024/05/02 10:03:42;;;;;;;6.38;5.72;;;25.20;92.90;;;;;;7518422;26;20638;-84
2024/05/02 10:07:05;;;;;;;8.73;6.32;;;26.50;91.70;;;;;;7494248;26;20274;-85
2024/05/02 10:10:31;;;;;;;6.65;5.03;;;26.80;90.10;;;;;;7511671;26;20231;-83
2024/05/02 10:13:57;;;;;;;7.22;5.30;;;26.60;90.60;;;;;;7508349;26;20233;-82
2024/05/02 10:17:20;;;;;;;9.70;5.75;;;27.90;87.40;;;;;;7518821;26;20228;-85
2024/05/02 10:20:48;;;;;;;6.35;4.80;;;27.40;86.30;;;;;;7523463;26;20270;-83
2024/05/02 10:24:17;;;;;;;7.05;4.38;;;27.50;87.00;;;;;;7517208;26;20232;-85
2024/05/02 10:27:45;;;;;;;5.95;5.10;;;26.30;87.90;;;;;;7512281;26;20237;-85
2024/05/02 10:31:12;;;;;;;6.88;6.10;;;24.50;91.10;;;;;;7517875;26;20274;-84
2024/05/02 10:34:36;;;;;;;5.95;4.82;;;25.00;90.60;;;;;;7493127;26;20369;-83
2024/05/02 10:38:00;;;;;;;9.80;6.85;;;23.40;93.50;;;;;;7508203;26;20224;-81
2024/05/02 10:41:24;;;;;;;6.35;5.82;;;23.50;94.50;;;;;;7501890;26;20279;-84
2024/05/02 10:44:50;;;;;;;9.32;5.25;;;24.00;93.60;;;;;;7515649;26;20262;-83
2024/05/02 10:48:13;;;;;;;9.10;5.47;;;23.40;94.90;;;;;;7510384;26;20271;-83
2024/05/02 10:51:36;;;;;;;8.23;5.15;;;23.40;95.60;;;;;;7506850;26;20715;-83
2024/05/02 10:54:59;;;;;;;9.65;5.90;;;23.20;96.10;;;;;;7524609;26;20248;-83
2024/05/02 10:58:23;;;;;;;13.50;4.95;;;22.80;96.80;;;;;;7518079;26;20270;-82
2024/05/02 11:01:50;;;;;;;9.35;5.63;;;22.40;98.10;;;;;;7512834;26;20237;-83
2024/05/02 11:05:13;;;;;;;12.20;5.93;;;22.30;98.40;;;;;;7509818;26;20249;-83
2024/05/02 11:08:36;;;;;;;6.20;5.40;;;22.90;98.00;;;;;;7514636;26;20233;-82
2024/05/02 11:11:59;;;;;;;5.78;4.50;;;23.00;96.90;;;;;;7517572;26;20239;-82
2024/05/02 11:15:23;;;;;;;7.97;5.20;;;22.10;97.90;;;;;;7498769;26;20236;-81
2024/05/02 11:18:49;;;;;;;8.45;5.07;;;21.90;98.60;;;;;;7523604;26;20233;-81
2024/05/02 11:22:12;;;;;;;10.93;5.45;;;21.40;99.90;;;;;;7509604;26;20230;-81
2024/05/02 11:25:35;;;;;;;12.40;5.53;;;21.70;99.90;;;;;;7512802;26;20271;-80
2024/05/02 11:28:58;;;;;;;10.77;5.70;;;23.80;98.20;;;;;;7505380;26;20266;-81
2024/05/02 11:32:21;;;;;;;5.43;4.93;;;24.30;96.40;;;;;;7508123;26;20228;-82
2024/05/02 11:35:47;;;;;;;8.80;4.10;;;25.90;93.90;;;;;;7510916;26;20240;-83
2024/05/02 11:39:10;;;;;;;7.10;4.30;;;26.40;92.50;;;;;;7508431;26;20232;-83
2024/05/02 11:42:34;;;;;;;7.07;4.28;;;24.80;93.70;;;;;;7513208;26;20337;-82
2024/05/02 11:45:57;;;;;;;7.53;4.03;;;25.20;93.70;;;;;;7493126;26;20268;-82
2024/05/02 11:49:21;;;;;;;9.95;6.20;;;24.20;94.70;;;;;;7489184;26;20225;-85
2024/05/02 11:52:47;;;;;;;6.88;3.95;;;23.80;94.70;;;;;;7484925;26;20236;-82
2024/05/02 11:56:10;;;;;;;8.20;4.05;;;23.80;94.30;;;;;;7499698;26;20272;-81
2024/05/02 11:59:34;;;;;;;8.38;4.78;;;23.00;95.70;;;;;;7491082;26;20222;-83
2024/05/02 12:02:57;;;;;;;5.90;4.18;;;23.20;95.60;;;;;;7493983;26;20233;-82
2024/05/02 12:06:20;;;;;;;5.63;4.10;;;23.30;96.20;;;;;;7517597;26;20642;-82
2024/05/02 12:09:46;;;;;;;5.95;4.65;;;23.50;96.10;;;;;;7504458;26;20228;-84
2024/05/02 12:13:08;;;;;;;6.28;4.20;;;24.10;95.20;;;;;;7502371;26;20290;-82
2024/05/02 12:16:35;;;;;;;6.35;3.63;;;24.00;94.40;;;;;;7511690;26;20788;-83
2024/05/02 12:19:58;;;;;;;6.47;5.82;;;23.00;95.40;;;;;;7523325;26;20658;-81
2024/05/02 12:23:22;;;;;;;5.68;3.42;;;23.80;94.40;;;;;;7522513;26;20341;-81
2024/05/02 12:26:49;;;;;;;11.57;5.07;;;23.80;93.90;;;;;;7483138;26;20689;-80
2024/05/02 12:30:12;;;;;;;3.30;2.95;;;23.80;94.40;;;;;;7489443;26;20233;-80
2024/05/02 12:33:35;;;;;;;7.07;4.05;;;22.80;94.90;;;;;;7500616;26;20286;-81
2024/05/02 12:36:58;;;;;;;5.40;3.50;;;22.60;94.80;;;;;;7506497;26;20271;-81
2024/05/02 12:40:21;;;;;;;7.65;3.60;;;22.70;94.80;;;;;;7500668;26;20241;-81
2024/05/02 12:43:46;;;;;;;6.78;3.63;;;23.20;94.30;;;;;;7522446;26;20245;-81
2024/05/02 12:47:09;;;;;;;6.45;2.78;;;23.00;95.00;;;;;;7502124;26;20303;-82
2024/05/02 12:50:32;;;;;;;5.80;3.05;;;22.50;96.80;;;;;;7513027;26;20311;-82
2024/05/02 12:53:55;;;;;;;3.85;3.33;;;22.00;97.90;;;;;;7503420;26;20333;-82
2024/05/02 12:57:19;;;;;;;9.18;4.63;;;22.10;98.20;;;;;;7509854;26;20236;-83
2024/05/02 13:00:44;;;;;;;4.78;3.33;;;22.10;98.30;;;;;;7508338;26;20241;-80
2024/05/02 13:04:08;;;;;;;3.70;3.33;;;22.30;98.30;;;;;;7513745;26;20240;-81
2024/05/02 13:07:31;;;;;;;6.65;3.55;;;22.20;98.40;;;;;;7511163;26;20228;-78
2024/05/02 13:10:54;;;;;;;4.82;3.85;;;22.20;98.70;;;;;;7513227;26;20278;-83
2024/05/02 13:14:17;;;;;;;3.78;3.42;;;22.70;98.40;;;;;;7501908;26;20651;-81
2024/05/02 13:17:43;;;;;;;6.55;3.72;;;23.00;97.50;;;;;;7499416;26;20280;-80
2024/05/02 13:21:07;;;;;;;7.03;4.60;;;23.10;97.20;;;;;;7504351;26;20337;-81
2024/05/02 13:24:30;;;;;;;6.63;3.70;;;23.30;96.90;;;;;;7505157;26;20244;-82
2024/05/02 13:27:53;;;;;;;9.85;4.60;;;23.30;97.60;;;;;;7515352;26;20272;-83
2024/05/02 13:31:16;;;;;;;8.02;3.90;;;22.80;99.90;;;;;;7507011;26;20601;-81
2024/05/02 13:34:42;;;;;;;6.70;3.75;;;21.30;99.90;;;;;;7490040;26;20234;-80
2024/05/02 13:38:06;;;;;;;4.28;3.90;;;20.60;99.90;;;;;;7512356;26;21099;-81
2024/05/02 13:41:29;;;;;;;4.90;4.03;;;20.10;99.90;;;;;;7505723;26;20244;-79
2024/05/02 13:44:52;;;;;;;5.22;4.38;;;19.70;99.90;;;;;;7505399;26;20717;-80
2024/05/02 13:48:15;;;;;;;4.35;3.90;;;19.30;99.90;;;;;;7517631;26;20268;-80
2024/05/02 13:51:41;;;;;;;5.55;4.97;;;19.10;99.90;;;;;;7511035;26;20276;-79
2024/05/02 13:55:04;;;;;;;4.07;3.65;;;19.20;99.90;;;;;;7505548;26;20228;-79
2024/05/02 13:58:27;;;;;;;5.18;4.78;;;19.30;99.90;;;;;;7519952;26;20283;-80
2024/05/02 14:01:50;;;;;;;7.30;4.55;;;19.50;99.90;;;;;;7494848;26;20267;-79
2024/05/02 14:05:13;;;;;;;4.45;4.10;;;19.50;99.90;;;;;;7497856;26;20248;-81
2024/05/02 14:08:39;;;;;;;4.10;3.70;;;19.60;99.90;;;;;;7489038;26;20225;-80
2024/05/02 14:12:02;;;;;;;5.00;4.05;;;19.90;99.90;;;;;;7517711;26;20279;-81
2024/05/02 14:15:25;;;;;;;5.28;3.92;;;20.00;99.90;;;;;;7503357;26;20236;-80
2024/05/02 14:18:48;;;;;;;9.38;4.35;;;20.10;99.90;;;;;;7512360;26;20234;-82
2024/05/02 14:22:11;;;;;;;4.50;3.65;;;20.30;99.90;;;;;;7507255;26;20232;-81
2024/05/02 14:25:37;;;;;;;5.07;3.47;;;20.90;99.90;;;;;;7507342;26;20274;-80
2024/05/02 14:29:00;;;;;;;6.00;3.42;;;21.40;99.90;;;;;;7494741;26;20358;-80
2024/05/02 14:32:23;;;;;;;4.10;3.20;;;21.50;99.90;;;;;;7503340;26;20396;-81
2024/05/02 14:35:46;;;;;;;4.05;3.47;;;21.70;99.90;;;;;;7515643;26;20240;-81
2024/05/02 14:39:10;;;;;;;4.40;3.38;;;22.00;99.90;;;;;;7517487;26;20271;-81
2024/05/02 14:42:36;;;;;;;6.35;3.05;;;22.30;99.90;;;;;;7511516;26;20267;-80
2024/05/02 14:45:59;;;;;;;4.10;3.55;;;22.30;99.90;;;;;;7515382;26;20240;-80
2024/05/02 14:49:22;;;;;;;4.25;3.25;;;22.40;99.90;;;;;;7506051;26;20233;-80
2024/05/02 14:52:45;;;;;;;4.97;3.33;;;22.50;99.90;;;;;;7521638;26;20579;-80
2024/05/02 14:56:08;;;;;;;2.90;2.67;;;23.00;99.90;;;;;;7516558;26;20244;-81
2024/05/02 14:59:34;;;;;;;4.32;2.70;;;22.60;99.90;;;;;;7510759;26;20224;-80
2024/05/02 15:02:57;;;;;;;5.90;2.92;;;22.50;99.90;;;;;;7516441;26;20408;-81
2024/05/02 15:06:27;;;;;;;2.53;2.33;;;22.50;99.90;;;;;;7510501;26;20228;-81
2024/05/02 15:09:50;;;;;;;2.75;2.58;;;22.60;99.90;;;;;;7501253;26;20232;-81
2024/05/02 15:13:13;;;;;;;3.42;3.13;;;22.50;99.90;;;;;;7521182;26;20244;-81
2024/05/02 15:16:39;;;;;;;3.92;2.78;;;22.90;99.90;;;;;;7507339;26;20271;-81
2024/05/02 15:20:02;;;;;;;4.03;2.42;;;23.30;99.90;;;;;;7508768;26;20232;-81
2024/05/02 15:23:25;;;;;;;4.03;2.60;;;23.50;99.90;;;;;;7510158;26;20297;-80
2024/05/02 15:26:48;;;;;;;4.47;2.13;;;23.40;99.90;;;;;;7509774;26;20771;-81
2024/05/02 15:30:12;;;;;;;2.33;2.22;;;23.30;99.90;;;;;;7516991;26;20610;-80
2024/05/02 15:33:38;;;;;;;1.90;1.70;;;23.50;99.90;;;;;;7504064;26;20279;-79
2024/05/02 15:37:01;;;;;;;1.88;1.70;;;23.20;98.80;;;;;;7507106;26;20662;-80
2024/05/02 15:40:24;;;;;;;3.33;2.28;;;22.90;97.80;;;;;;7517051;26;20267;-82
2024/05/02 15:43:47;;;;;;;2.25;2.03;;;23.00;98.50;;;;;;7514056;26;20240;-82
2024/05/02 15:47:10;;;;;;;3.90;2.55;;;23.20;98.40;;;;;;7515032;26;20235;-80
2024/05/02 15:50:36;;;;;;;3.75;1.80;;;22.80;97.80;;;;;;7493000;26;20238;-80
2024/05/02 15:53:59;;;;;;;2.30;2.10;;;22.50;98.60;;;;;;7515106;26;20232;-82
2024/05/02 15:57:22;;;;;;;2.22;2.05;;;22.60;98.40;;;;;;7506978;26;20236;-79
2024/05/02 16:00:45;;;;;;;5.22;2.33;;;22.50;98.20;;;;;;7506706;26;20232;-81
2024/05/02 16:04:08;;;;;;;5.40;1.83;;;22.60;98.50;;;;;;7494563;26;20278;-80
2024/05/02 16:07:34;;;;;;;3.58;2.13;;;22.70;98.70;;;;;;7498737;26;20233;-80
2024/05/02 16:10:57;;;;;;;2.97;2.08;;;22.60;98.80;;;;;;7522201;26;20234;-82
2024/05/02 16:14:20;;;;;;;3.13;2.28;;;22.50;98.50;;;;;;7508156;26;20339;-81
2024/05/02 16:17:43;;;;;;;3.83;2.13;;;22.40;98.30;;;;;;7516251;26;20275;-81
2024/05/02 16:21:06;;;;;;;2.47;2.28;;;22.30;98.60;;;;;;7501474;26;20274;-81
2024/05/02 16:24:32;;;;;;;3.33;2.08;;;22.30;98.60;;;;;;7498990;26;20336;-80
2024/05/02 16:27:55;;;;;;;4.03;2.80;;;22.30;98.50;;;;;;7521860;26;20228;-81
2024/05/02 16:31:18;;;;;;;3.08;2.33;;;22.20;99.10;;;;;;7506891;26;20229;-80
2024/05/02 16:34:41;;;;;;;3.83;3.08;;;22.20;98.50;;;;;;7496884;26;20233;-80
2024/05/02 16:38:04;;;;;;;4.78;2.55;;;22.00;99.20;;;;;;7515970;26;20245;-81
2024/05/02 16:41:30;;;;;;;3.13;2.78;;;22.30;98.80;;;;;;7505494;26;20233;-79
2024/05/02 16:44:53;;;;;;;2.40;2.20;;;22.40;98.40;;;;;;7500927;26;20229;-80
2024/05/02 16:48:19;;;;;;;2.45;2.15;;;22.30;97.40;;;;;;7519761;26;20232;-79
2024/05/02 16:51:42;;;;;;;2.25;2.00;;;22.20;97.20;;;;;;7515929;26;20317;-79
2024/05/02 16:55:06;;;;;;;2.90;2.30;;;22.10;97.10;;;;;;7506162;26;20266;-80
2024/05/02 16:58:32;;;;;;;2.92;2.28;;;22.20;98.10;;;;;;7520174;26;20316;-80
2024/05/02 17:01:55;;;;;;;2.92;2.40;;;22.00;97.10;;;;;;7511187;26;20240;-80
2024/05/02 17:05:18;;;;;;;2.38;2.17;;;21.80;97.40;;;;;;7511689;26;20329;-81
2024/05/02 17:08:42;;;;;;;3.58;2.70;;;21.70;97.50;;;;;;7519909;26;20229;-82
2024/05/02 17:12:06;;;;;;;3.30;2.90;;;21.70;97.70;;;;;;7516278;26;20360;-80
2024/05/02 17:15:31;;;;;;;3.03;2.42;;;21.80;98.00;;;;;;7448199;26;20230;-79
2024/05/02 17:18:55;;;;;;;3.38;2.42;;;21.80;97.80;;;;;;7441423;26;20958;-80
2024/05/02 17:22:18;;;;;;;3.28;2.65;;;21.80;98.10;;;;;;7450883;26;20238;-80
2024/05/02 17:25:42;;;;;;;3.42;2.63;;;21.90;98.00;;;;;;7445104;26;20549;-80
2024/05/02 17:29:05;;;;;;;3.58;2.65;;;21.70;98.00;;;;;;7434443;26;20269;-79
2024/05/02 17:32:30;;;;;;;4.45;2.78;;;21.80;98.40;;;;;;7443143;26;20254;-78
2024/05/02 17:35:54;;;;;;;4.50;3.20;;;21.80;98.70;;;;;;7452560;26;20375;-81
2024/05/02 17:39:17;;;;;;;4.20;2.17;;;21.80;99.40;;;;;;7445376;26;20249;-79